Pagina principale
METAR-TAF:

METAR-TAF

Aeroporti :

Memmingen, Germania

latitudine: 47-59-33N, longitudine: 10-14-37E, altezza: 633 m

Osservazione

Il bollettino è stato emesso 15 minuti fa, alle 02:50 UTC
Vento 11 kt da nord-est
Temperature 3°C
Umidità 93%
Pressione 1032 hPa
Visibilità 10 km o più

METAR: EDJA 270250Z AUTO 04011KT 9999 // FEW009/// SCT011/// OVC013/// 03/02 Q1032

Ora: 04:05 (03:05 UTC)

Previsione

Il bollettino è stato emesso 10 ore e 5 minuti fa, alle 17:00 UTC
Previsione valida dal 26 alle 18 UTC al 27 alle 03 UTC
Vento 4 kt da nord/nord-ovest
Visibilità 10 km o più
Poco nuvoloso ad un'altezza di 3000 ft
Evoluzione graduale
dal 26 alle 18 UTC al 26 alle 21 UTC
Cielo coperto ad un'altezza di 600 ft
Temporaneamente
dal 26 alle 20 UTC al 27 alle 03 UTC
Visibilità: 2000 m
Nuvoloso ad un'altezza di 400 ft
pioviggine, pioggia

TAF: EDJA 261700Z 2618/2703 33004KT 9999 FEW030 BECMG 2618/2621 OVC006 TEMPO 2620/2703 2000 DZRA BKN004

Osservazioni e previsioni meteorologiche di più di 4000 aeroporti (messaggi METAR e TAF).

Le stazioni disponibili sono rappresentate dai dischi gialli e rossi sulla carta.

Puntare il mouse per vedere il nome della stazione.

Clicca sopra per visualizzare le osservazioni e previsioni meteorologiche.

Per cambiare la mappa : fare clic sui pulsanti verdi con una croce nera per ingrandire, il pulsante verde con un trattino per diminuire, o sulla freccia verde per le mappe adiacenti.


METAR-TAF: